Masheh, Iran
Current Conditions -  °F | °C
As of 8:00 PM on Monday 22 Dec 2014 (Local Time) from OIBK Reporting Station
Sand / Dust Storm Sand / Dust Storm  
Wind Chill: 72°   Ceiling: Unl
Heat Index: 72°   Visibility: 3mi
Dew Point: 61°   Wind: 16mph
Humidity: 69%   Direction: 290°WNW
Pressure: 29.91"   Gusts: NA
Location:  26.55°N, 54.02°E
Report Text: OIBK 221700Z 29014KT 5000 SA FEW025 22/16 Q1013
Loading
Personal Weather Stations






























Interactive Weather Map New forecast layout! Learn more

10-Day Weather Forecast

Advertisements
Track Severe Weather on mobile